Time;durP1;ratioP1;P1;durP2;ratioP2;P2;SDS_P1;SDS_P2;PMS_P1;PMS_P2;Temp;Humidity;BMP_temperature;BMP_pressure;BME280_temperature;BME280_humidity;BME280_pressure;Samples;Min_cycle;Max_cycle;Signal;HPM_P1;HPM_P2
2022/10/23 00:00:08;;;;;;;17.90;13.18;;;;;;;11.54;71.54;100956.59;836023;23;1155;-78
2022/10/23 00:01:09;;;;;;;19.98;13.50;;;;;;;11.52;71.38;100950.44;839649;23;1369;-78
2022/10/23 00:01:32;;;;;;;17.95;13.07;;;;;;;11.41;71.47;100938.84;846075;23;922;-75
2022/10/23 00:01:53;;;;;;;16.83;13.20;;;;;;;11.41;71.38;100938.84;849434;23;821;-75
2022/10/23 00:02:13;;;;;;;16.33;13.20;;;;;;;11.46;71.51;100942.44;843790;23;1230;-76
2022/10/23 00:02:34;;;;;;;16.47;12.93;;;;;;;11.40;71.41;100932.72;849665;23;984;-75
2022/10/23 00:02:55;;;;;;;17.27;13.10;;;;;;;11.43;71.51;100942.38;844187;23;1360;-75
2022/10/23 00:03:16;;;;;;;15.55;13.20;;;;;;;11.38;71.67;100931.78;840087;23;1948;-75
2022/10/23 00:03:37;;;;;;;14.35;12.85;;;;;;;11.40;71.40;100944.88;831926;23;1395;-75
2022/10/23 00:04:00;;;;;;;15.27;13.20;;;;;;;11.39;71.50;100941.41;837466;23;814;-76
2022/10/23 00:04:24;;;;;;;16.63;13.30;;;;;;;11.40;71.44;100937.03;831963;23;1029;-75
2022/10/23 00:04:44;;;;;;;17.05;13.10;;;;;;;11.43;71.59;100948.47;836239;23;1792;-76
2022/10/23 00:05:05;;;;;;;15.27;12.80;;;;;;;11.45;71.34;100944.19;840002;23;1143;-75
2022/10/23 00:05:27;;;;;;;14.10;12.30;;;;;;;11.38;71.66;100939.63;840023;23;1330;-75
2022/10/23 00:05:48;;;;;;;16.35;12.80;;;;;;;11.39;71.53;100944.00;839094;23;1036;-75
2022/10/23 00:06:11;;;;;;;15.93;12.73;;;;;;;11.36;71.29;100936.06;841656;23;986;-75
2022/10/23 00:06:33;;;;;;;18.20;13.13;;;;;;;11.43;71.21;100943.22;835985;23;1188;-76
2022/10/23 00:06:53;;;;;;;17.38;12.98;;;;;;;11.33;71.41;100933.38;840058;23;1184;-77
2022/10/23 00:07:14;;;;;;;17.55;13.05;;;;;;;11.40;71.31;100951.00;841517;23;1073;-77
2022/10/23 00:07:35;;;;;;;18.13;13.13;;;;;;;11.30;71.34;100930.69;837507;23;1009;-77
2022/10/23 00:07:58;;;;;;;22.13;14.00;;;;;;;11.33;71.51;100936.91;840196;23;1322;-78
2022/10/23 00:08:18;;;;;;;23.67;14.20;;;;;;;11.31;71.46;100938.56;841310;23;1014;-78
2022/10/23 00:08:48;;;;;;;21.27;14.63;;;;;;;11.37;71.43;100948.31;845682;23;761;-78
2022/10/23 00:09:12;;;;;;;19.10;13.70;;;;;;;11.37;71.55;100954.41;844172;23;1097;-78
2022/10/23 00:09:33;;;;;;;16.00;12.52;;;;;;;11.29;71.50;100945.47;839827;23;1180;-77
2022/10/23 00:09:54;;;;;;;16.80;13.10;;;;;;;11.35;71.33;100950.88;839993;23;1105;-77
2022/10/23 00:10:15;;;;;;;18.30;13.55;;;;;;;11.31;71.30;100945.53;841734;23;1114;-77
2022/10/23 00:10:40;;;;;;;18.52;14.52;;;;;;;11.32;71.48;100950.78;844091;23;1187;-77
2022/10/23 00:11:09;;;;;;;19.75;13.80;;;;;;;11.25;71.47;100935.81;840039;23;849;-78
2022/10/23 00:11:30;;;;;;;18.13;13.10;;;;;;;11.24;71.44;100942.75;836056;23;1056;-78
2022/10/23 00:11:52;;;;;;;20.08;13.45;;;;;;;11.28;71.63;100940.19;832247;23;1362;-77
2022/10/23 00:12:14;;;;;;;19.08;13.70;;;;;;;11.29;71.46;100945.47;836303;23;1413;-78
2022/10/23 00:12:37;;;;;;;17.58;13.38;;;;;;;11.29;71.32;100948.09;840198;23;1276;-78
2022/10/23 00:12:58;;;;;;;15.93;13.43;;;;;;;11.28;71.27;100948.03;840329;23;1204;-78
2022/10/23 00:13:19;;;;;;;16.70;13.93;;;;;;;11.30;71.76;100952.47;840342;23;1432;-77
2022/10/23 00:13:40;;;;;;;17.07;14.10;;;;;;;11.28;71.52;100945.41;836872;23;1287;-78
2022/10/23 00:14:03;;;;;;;17.58;14.23;;;;;;;11.30;71.61;100949.00;844826;23;819;-77
2022/10/23 00:14:24;;;;;;;16.48;13.90;;;;;;;11.34;71.52;100956.06;844822;23;1139;-77
2022/10/23 00:14:45;;;;;;;16.08;13.75;;;;;;;11.30;71.64;100949.00;836912;23;1383;-77
2022/10/23 00:15:06;;;;;;;17.50;13.77;;;;;;;11.29;71.38;100945.47;838494;23;1052;-78
2022/10/23 00:15:27;;;;;;;23.05;14.30;;;;;;;11.28;71.73;100951.56;841298;23;954;-78
2022/10/23 00:15:48;;;;;;;25.03;15.17;;;;;;;11.27;71.65;100946.28;836249;23;1132;-76
2022/10/23 00:16:09;;;;;;;21.88;14.35;;;;;;;11.34;71.63;100956.06;839649;23;1070;-77
2022/10/23 00:16:29;;;;;;;17.33;13.82;;;;;;;11.26;71.52;100941.88;846493;23;977;-78
2022/10/23 00:16:59;;;;;;;15.20;13.20;;;;;;;11.30;71.69;100946.38;837158;23;1052;-77
2022/10/23 00:17:20;;;;;;;16.35;13.65;;;;;;;11.28;71.19;100948.94;836685;23;1227;-78
2022/10/23 00:17:40;;;;;;;17.58;13.50;;;;;;;11.26;71.54;100942.78;836754;23;1203;-77
2022/10/23 00:18:03;;;;;;;18.80;13.65;;;;;;;11.27;71.58;100941.94;838297;23;853;-77
2022/10/23 00:18:24;;;;;;;17.10;13.35;;;;;;;11.28;71.62;100948.03;832751;23;1346;-77
2022/10/23 00:18:45;;;;;;;16.27;13.67;;;;;;;11.30;71.26;100951.59;835475;23;997;-78
2022/10/23 00:19:05;;;;;;;16.38;13.50;;;;;;;11.27;71.41;100941.03;836342;23;1070;-75
2022/10/23 00:19:26;;;;;;;18.77;14.15;;;;;;;11.30;71.35;100946.38;840482;23;918;-77
2022/10/23 00:19:47;;;;;;;20.03;14.03;;;;;;;11.20;71.63;100934.78;841999;23;747;-78
2022/10/23 00:20:08;;;;;;;19.80;14.27;;;;;;;11.24;71.27;100941.84;846119;23;1016;-77
2022/10/23 00:20:29;;;;;;;17.70;13.60;;;;;;;11.23;71.51;100945.28;848622;23;1126;-78
2022/10/23 00:20:50;;;;;;;16.83;13.60;;;;;;;11.23;71.60;100951.41;844604;23;1524;-77
2022/10/23 00:21:14;;;;;;;15.32;12.82;;;;;;;11.19;71.74;100944.31;844359;23;1322;-78
2022/10/23 00:21:34;;;;;;;14.77;12.52;;;;;;;11.13;71.73;100936.34;840237;23;1824;-77
2022/10/23 00:21:55;;;;;;;14.07;12.57;;;;;;;11.18;71.73;100952.13;840344;23;1019;-77
2022/10/23 00:22:16;;;;;;;14.48;12.73;;;;;;;11.17;71.38;100946.03;841802;23;998;-78
2022/10/23 00:22:37;;;;;;;14.93;12.57;;;;;;;11.17;71.56;100950.38;841428;23;981;-77
2022/10/23 00:22:57;;;;;;;16.90;13.05;;;;;;;11.14;71.87;100945.94;840104;23;945;-78
2022/10/23 00:23:18;;;;;;;17.30;13.30;;;;;;;11.14;71.70;100950.25;841438;23;1963;-78
2022/10/23 00:23:39;;;;;;;17.95;13.18;;;;;;;11.12;71.70;100942.38;836119;23;1116;-77
2022/10/23 00:24:00;;;;;;;16.88;12.70;;;;;;;11.15;71.89;100947.72;832359;23;1340;-78
2022/10/23 00:24:22;;;;;;;16.85;12.95;;;;;;;11.17;71.76;100946.03;831964;23;1402;-77
2022/10/23 00:24:43;;;;;;;16.15;13.00;;;;;;;11.22;71.72;100957.50;840156;23;1236;-78
2022/10/23 00:25:05;;;;;;;16.08;12.95;;;;;;;11.19;71.51;100944.31;835820;23;1703;-78
2022/10/23 00:25:25;;;;;;;14.45;12.38;;;;;;;11.17;71.64;100955.59;839969;23;1230;-78
2022/10/23 00:25:46;;;;;;;15.95;12.32;;;;;;;11.05;71.52;100936.09;840072;23;1139;-78
2022/10/23 00:26:09;;;;;;;17.05;13.05;;;;;;;11.10;71.72;100951.91;839943;23;1157;-77
2022/10/23 00:26:30;;;;;;;17.85;13.70;;;;;;;11.05;71.80;100948.28;841268;23;1103;-78
2022/10/23 00:26:51;;;;;;;17.38;13.88;;;;;;;10.95;71.75;100934.09;841724;23;767;-77
2022/10/23 00:27:12;;;;;;;18.10;13.45;;;;;;;10.98;71.74;100942.00;841503;23;942;-78
2022/10/23 00:27:33;;;;;;;17.92;13.18;;;;;;;10.96;72.06;100946.28;836116;23;1023;-78
2022/10/23 00:27:54;;;;;;;19.70;13.40;;;;;;;11.06;71.66;100942.22;842910;23;821;-78
2022/10/23 00:28:15;;;;;;;22.17;13.88;;;;;;;11.09;71.90;100942.31;845521;23;965;-77
2022/10/23 00:28:36;;;;;;;22.00;14.23;;;;;;;11.03;71.63;100936.91;845244;23;837;-78
2022/10/23 00:28:56;;;;;;;21.10;14.13;;;;;;;11.09;71.43;100942.31;846448;23;786;-78
2022/10/23 00:29:17;;;;;;;17.53;13.17;;;;;;;11.11;71.72;100953.66;840114;23;1115;-78
2022/10/23 00:29:38;;;;;;;16.45;13.30;;;;;;;11.08;71.47;100945.75;835404;23;1001;-78
2022/10/23 00:30:00;;;;;;;15.48;13.55;;;;;;;11.04;71.24;100939.56;836142;23;1785;-78
2022/10/23 00:30:21;;;;;;;16.55;14.50;;;;;;;11.07;71.58;100939.63;837147;23;1105;-77
2022/10/23 00:30:42;;;;;;;17.77;13.90;;;;;;;11.04;71.64;100942.16;844342;23;1183;-78
2022/10/23 00:31:04;;;;;;;19.23;13.73;;;;;;;11.07;71.49;100944.00;840056;23;1535;-78
2022/10/23 00:31:25;;;;;;;17.70;13.07;;;;;;;11.03;71.76;100937.78;839999;23;1130;-78
2022/10/23 00:31:46;;;;;;;17.67;13.45;;;;;;;11.05;71.49;100943.06;837679;23;728;-78
2022/10/23 00:32:06;;;;;;;16.60;13.63;;;;;;;11.05;71.60;100943.06;841528;23;1115;-77
2022/10/23 00:32:27;;;;;;;18.13;14.10;;;;;;;11.08;71.50;100951.84;845403;23;967;-78
2022/10/23 00:32:48;;;;;;;18.10;14.30;;;;;;;11.02;71.56;100935.13;841522;23;709;-78
2022/10/23 00:33:10;;;;;;;18.23;14.18;;;;;;;11.05;71.46;100943.06;840073;23;1320;-77
2022/10/23 00:33:31;;;;;;;16.55;13.63;;;;;;;11.05;71.34;100941.31;839829;23;1203;-78
2022/10/23 00:33:52;;;;;;;16.55;12.75;;;;;;;11.04;71.62;100934.34;844240;23;1827;-77
2022/10/23 00:34:13;;;;;;;16.23;12.48;;;;;;;11.06;71.53;100939.63;845418;23;977;-78
2022/10/23 00:34:34;;;;;;;18.40;13.02;;;;;;;11.04;71.46;100936.94;839899;23;996;-77
2022/10/23 00:34:57;;;;;;;19.02;13.60;;;;;;;11.14;71.45;100951.16;837576;23;787;-77
2022/10/23 00:35:17;;;;;;;18.65;13.45;;;;;;;11.04;71.36;100936.94;840116;23;1425;-77
2022/10/23 00:35:41;;;;;;;17.23;13.40;;;;;;;11.05;71.19;100932.63;841406;23;1057;-78
2022/10/23 00:36:08;;;;;;;18.42;12.90;;;;;;;11.09;71.52;100935.38;844031;23;1161;-78
2022/10/23 00:36:29;;;;;;;19.17;13.00;;;;;;;11.04;71.26;100939.56;839827;23;1468;-78
2022/10/23 00:36:50;;;;;;;18.07;12.80;;;;;;;11.15;71.37;100952.94;839964;23;1488;-78
2022/10/23 00:37:10;;;;;;;17.52;13.25;;;;;;;11.08;71.25;100948.38;837517;23;981;-78
2022/10/23 00:37:31;;;;;;;16.75;13.07;;;;;;;11.08;71.41;100945.75;836024;23;1076;-78
2022/10/23 00:37:52;;;;;;;16.88;13.27;;;;;;;11.13;71.41;100959.84;845624;23;774;-78
2022/10/23 00:38:13;;;;;;;15.70;13.20;;;;;;;11.14;71.21;100956.38;849723;23;980;-78
2022/10/23 00:38:34;;;;;;;16.67;13.70;;;;;;;11.09;71.31;100955.38;843992;23;1383;-78
2022/10/23 00:38:55;;;;;;;19.35;14.27;;;;;;;11.12;71.50;100951.97;844010;23;1192;-78
2022/10/23 00:39:17;;;;;;;19.42;14.43;;;;;;;11.03;71.31;100948.25;836061;23;1364;-78
2022/10/23 00:39:38;;;;;;;17.52;13.90;;;;;;;11.02;71.33;100950.81;843615;23;1204;-78
2022/10/23 00:39:59;;;;;;;17.38;13.65;;;;;;;11.05;71.37;100950.91;849526;23;833;-77
2022/10/23 00:40:19;;;;;;;18.60;13.90;;;;;;;11.06;71.37;100950.94;849426;23;1183;-78
2022/10/23 00:40:42;;;;;;;18.20;13.60;;;;;;;11.00;71.29;100947.28;840086;23;1019;-78
2022/10/23 00:41:06;;;;;;;20.35;14.30;;;;;;;11.05;71.58;100962.22;835910;23;1304;-78
2022/10/23 00:41:28;;;;;;;19.10;13.80;;;;;;;11.05;71.49;100951.78;837460;23;865;-78
2022/10/23 00:41:49;;;;;;;18.00;13.60;;;;;;;10.99;71.51;100941.16;841601;23;818;-78
2022/10/23 00:42:18;;;;;;;15.95;13.50;;;;;;;11.00;71.39;100942.91;839978;23;1313;-77
2022/10/23 00:42:40;;;;;;;15.10;13.50;;;;;;;11.06;71.62;100953.53;835992;23;1130;-78
2022/10/23 00:43:01;;;;;;;15.95;13.68;;;;;;;11.03;71.32;100953.47;836139;23;1185;-78
2022/10/23 00:43:25;;;;;;;18.83;14.05;;;;;;;11.03;71.45;100950.84;837325;23;1941;-78
2022/10/23 00:44:01;;;;;;;20.27;14.30;;;;;;;11.07;71.52;100957.91;837526;23;780;-77
2022/10/23 00:44:21;;;;;;;18.90;14.20;;;;;;;11.10;71.50;100960.63;841439;23;1069;-78
2022/10/23 00:44:42;;;;;;;17.88;14.00;;;;;;;11.10;71.62;100965.88;840196;23;1183;-78
2022/10/23 00:45:14;;;;;;;17.23;14.07;;;;;;;11.01;71.42;100943.81;843929;23;1518;-78
2022/10/23 00:45:36;;;;;;;16.20;13.75;;;;;;;11.03;71.60;100949.94;839902;23;1223;-77
2022/10/23 00:45:56;;;;;;;17.05;13.65;;;;;;;11.01;71.50;100933.38;844049;23;1165;-78
2022/10/23 00:46:17;;;;;;;17.40;13.60;;;;;;;11.07;71.63;100950.09;845405;23;1120;-78
2022/10/23 00:46:39;;;;;;;17.65;13.40;;;;;;;11.06;71.50;100950.06;849467;23;973;-78
2022/10/23 00:46:59;;;;;;;17.30;13.07;;;;;;;11.03;71.55;100943.03;845033;23;1211;-78
2022/10/23 00:47:20;;;;;;;20.97;13.30;;;;;;;11.06;71.37;100947.44;841385;23;1111;-78
2022/10/23 00:47:41;;;;;;;21.58;13.75;;;;;;;11.05;71.28;100945.69;836645;23;1066;-78
2022/10/23 00:48:03;;;;;;;22.10;13.98;;;;;;;11.01;71.28;100933.38;839997;23;1514;-77
2022/10/23 00:48:26;;;;;;;18.40;13.48;;;;;;;11.06;71.44;100952.69;839896;23;1218;-77
2022/10/23 00:48:48;;;;;;;15.95;12.90;;;;;;;11.02;71.28;100942.97;836049;23;1187;-77
2022/10/23 00:49:09;;;;;;;15.75;12.80;;;;;;;11.01;71.26;100938.59;843892;23;1161;-77
2022/10/23 00:49:29;;;;;;;16.50;13.13;;;;;;;11.01;71.09;100943.81;844988;23;1024;-78
2022/10/23 00:49:50;;;;;;;16.70;13.10;;;;;;;10.98;71.62;100942.00;845239;23;778;-77
2022/10/23 00:50:11;;;;;;;21.83;13.40;;;;;;;11.00;71.42;100944.66;845347;23;948;-77
2022/10/23 00:50:32;;;;;;;21.40;13.15;;;;;;;10.98;71.49;100949.81;840044;23;1143;-77
2022/10/23 00:50:54;;;;;;;21.50;13.80;;;;;;;10.90;71.71;100930.44;839040;23;1199;-78
2022/10/23 00:51:17;;;;;;;15.68;13.70;;;;;;;10.91;71.58;100938.31;839938;23;1476;-78
2022/10/23 00:51:51;;;;;;;15.45;13.27;;;;;;;10.94;71.59;100953.19;840015;23;1357;-77
2022/10/23 00:52:12;;;;;;;16.95;13.20;;;;;;;10.89;71.72;100934.78;839839;23;1128;-78
2022/10/23 00:52:39;;;;;;;18.80;14.00;;;;;;;10.89;71.67;100940.00;835913;23;1446;-77
2022/10/23 00:53:03;;;;;;;18.15;13.02;;;;;;;10.86;71.53;100939.91;837474;23;791;-77
2022/10/23 00:53:23;;;;;;;16.55;12.82;;;;;;;10.90;71.71;100939.16;839965;23;1002;-78
2022/10/23 00:53:49;;;;;;;16.42;13.10;;;;;;;10.91;71.49;100940.94;839903;23;1085;-78
2022/10/23 00:54:12;;;;;;;17.00;13.38;;;;;;;10.94;71.56;100946.22;835991;23;1235;-78
2022/10/23 00:54:37;;;;;;;15.82;13.15;;;;;;;10.92;71.28;100936.59;835724;23;1197;-77
2022/10/23 00:54:58;;;;;;;16.27;13.93;;;;;;;10.90;71.61;100935.66;839828;23;1363;-78
2022/10/23 00:55:21;;;;;;;16.90;13.90;;;;;;;10.87;71.57;100930.34;841437;23;989;-78
2022/10/23 00:55:45;;;;;;;17.20;14.02;;;;;;;10.92;71.54;100942.69;836053;23;1786;-78
2022/10/23 00:56:06;;;;;;;15.85;12.80;;;;;;;10.85;71.73;100938.13;837264;23;1081;-78
2022/10/23 00:56:27;;;;;;;16.87;12.70;;;;;;;10.87;71.74;100936.44;838323;23;1449;-78
2022/10/23 00:56:48;;;;;;;17.90;13.07;;;;;;;10.86;71.79;100934.69;832277;23;1341;-77
2022/10/23 00:57:13;;;;;;;18.52;13.45;;;;;;;10.85;71.67;100940.75;839692;23;1197;-77
2022/10/23 00:57:36;;;;;;;18.52;13.63;;;;;;;10.86;71.55;100937.28;839890;23;1205;-78
2022/10/23 00:57:56;;;;;;;17.77;13.48;;;;;;;10.82;71.70;100943.28;849504;23;833;-78
2022/10/23 00:58:20;;;;;;;16.25;13.23;;;;;;;10.80;71.86;100938.00;845219;23;965;-78
2022/10/23 00:58:40;;;;;;;18.23;13.38;;;;;;;10.83;71.63;100934.59;847960;23;802;-78
2022/10/23 00:59:01;;;;;;;18.15;13.40;;;;;;;10.87;71.39;100954.72;849437;23;832;-77
2022/10/23 00:59:22;;;;;;;15.38;13.20;;;;;;;10.78;71.81;100938.78;845111;23;957;-78
2022/10/23 00:59:43;;;;;;;14.63;13.05;;;;;;;10.79;71.68;100949.28;843464;23;1072;-77
2022/10/23 01:00:05;;;;;;;15.15;13.55;;;;;;;10.75;71.81;100942.19;839704;23;1233;-78
2022/10/23 01:00:43;;;;;;;15.93;13.65;;;;;;;10.79;71.57;100944.06;835931;23;1463;-78
2022/10/23 01:01:15;;;;;;;16.10;12.88;;;;;;;10.72;71.92;100942.13;839283;23;1448;-78
2022/10/23 01:01:36;;;;;;;15.52;12.77;;;;;;;10.75;71.95;100946.53;839991;23;1088;-78
2022/10/23 01:01:58;;;;;;;14.13;12.45;;;;;;;10.78;71.87;100957.97;839886;23;1576;-78
2022/10/23 01:02:20;;;;;;;14.48;12.98;;;;;;;10.72;71.99;100944.72;843868;23;1824;-77
2022/10/23 01:02:43;;;;;;;16.55;13.70;;;;;;;10.72;71.94;100946.44;839993;23;830;-78
2022/10/23 01:03:04;;;;;;;17.00;13.40;;;;;;;10.78;71.84;100962.28;839830;23;1185;-78
2022/10/23 01:03:27;;;;;;;16.60;13.15;;;;;;;10.76;72.06;100959.63;835751;23;1901;-78
2022/10/23 01:03:48;;;;;;;15.23;13.60;;;;;;;10.73;71.79;100950.81;839866;23;809;-78
2022/10/23 01:04:09;;;;;;;17.33;13.88;;;;;;;10.67;71.91;100944.59;837137;23;943;-78
2022/10/23 01:04:42;;;;;;;17.02;13.40;;;;;;;10.73;71.89;100956.03;835331;23;1065;-78
2022/10/23 01:05:03;;;;;;;18.38;13.00;;;;;;;10.72;72.02;100951.66;841152;23;1211;-77
2022/10/23 01:05:35;;;;;;;20.87;13.67;;;;;;;10.74;71.83;100957.84;841251;23;1043;-77
2022/10/23 01:06:07;;;;;;;19.58;13.93;;;;;;;10.70;71.92;100954.25;843886;23;1186;-78
2022/10/23 01:06:51;;;;;;;16.90;13.43;;;;;;;10.65;71.80;100938.44;839596;23;1267;-78
2022/10/23 01:07:41;;;;;;;16.63;13.02;;;;;;;10.76;71.79;100958.75;843684;23;1088;-78
2022/10/23 01:08:12;;;;;;;18.00;13.20;;;;;;;10.68;71.80;100954.19;849235;23;984;-78
2022/10/23 01:08:32;;;;;;;21.48;14.40;;;;;;;10.76;72.03;100958.75;853316;23;1044;-78
2022/10/23 01:09:13;;;;;;;22.02;14.30;;;;;;;10.68;71.94;100951.56;847893;23;1398;-78
2022/10/23 01:09:53;;;;;;;18.60;13.55;;;;;;;10.75;71.86;100962.22;831747;23;962;-77
2022/10/23 01:10:16;;;;;;;17.88;13.93;;;;;;;10.68;71.96;100945.44;837234;23;941;-77
2022/10/23 01:10:48;;;;;;;18.95;14.10;;;;;;;10.73;71.86;100958.63;837531;23;1109;-77
2022/10/23 01:11:15;;;;;;;17.30;13.55;;;;;;;10.69;71.75;100955.94;843876;23;1298;-78
2022/10/23 01:11:53;;;;;;;16.70;13.10;;;;;;;10.61;71.95;100944.41;841190;23;1078;-77
2022/10/23 01:12:27;;;;;;;16.98;13.30;;;;;;;10.71;71.87;100965.53;835845;23;1268;-78
2022/10/23 01:13:07;;;;;;;17.92;13.38;;;;;;;10.60;72.02;100947.84;831438;23;922;-77
2022/10/23 01:13:33;;;;;;;20.13;14.65;;;;;;;10.70;71.87;100964.69;839589;23;1214;-78
2022/10/23 01:14:00;;;;;;;21.13;15.10;;;;;;;10.66;71.95;100950.66;841030;23;842;-78
2022/10/23 01:14:42;;;;;;;22.48;14.77;;;;;;;10.65;72.09;100948.88;839863;23;2062;-78
2022/10/23 01:15:28;;;;;;;18.33;14.23;;;;;;;10.68;71.99;100961.13;839676;23;1073;-78
2022/10/23 01:16:25;;;;;;;18.50;14.55;;;;;;;10.66;72.11;100955.88;839828;23;1336;-77
2022/10/23 01:17:12;;;;;;;19.40;14.07;;;;;;;10.65;72.15;100956.72;844058;23;838;-77
2022/10/23 01:17:50;;;;;;;16.98;13.07;;;;;;;10.59;71.78;100951.28;839666;23;1224;-78
2022/10/23 01:18:15;;;;;;;15.90;13.18;;;;;;;10.64;72.08;100954.91;839670;23;1319;-78
2022/10/23 01:18:48;;;;;;;16.80;13.32;;;;;;;10.56;71.82;100951.19;843676;23;987;-77
2022/10/23 01:19:26;;;;;;;16.58;13.40;;;;;;;10.63;71.93;100958.38;835739;23;1047;-78
2022/10/23 01:19:58;;;;;;;18.13;14.48;;;;;;;10.62;71.98;100961.81;837776;23;1029;-78
2022/10/23 01:20:37;;;;;;;16.60;13.57;;;;;;;10.60;72.03;100963.50;835703;23;1037;-77
2022/10/23 01:21:27;;;;;;;16.70;13.55;;;;;;;10.60;71.94;100958.28;835576;23;1219;-77
2022/10/23 01:22:12;;;;;;;16.90;13.65;;;;;;;10.58;71.99;100957.34;839607;23;1145;-77
2022/10/23 01:23:03;;;;;;;18.73;13.93;;;;;;;10.58;72.05;100957.34;839419;23;937;-77
2022/10/23 01:23:56;;;;;;;17.85;12.73;;;;;;;10.54;72.13;100950.25;840809;23;1909;-77
2022/10/23 01:24:24;;;;;;;20.17;14.23;;;;;;;10.56;72.02;100951.19;836616;23;1175;-77
2022/10/23 01:24:55;;;;;;;19.98;14.65;;;;;;;10.55;72.07;100949.41;835672;23;1094;-78
2022/10/23 01:25:47;;;;;;;23.23;15.57;;;;;;;10.55;72.05;100954.63;835680;23;1192;-77
2022/10/23 01:26:23;;;;;;;19.38;15.27;;;;;;;10.54;71.98;100950.25;839622;23;1110;-78
2022/10/23 01:26:56;;;;;;;21.65;15.43;;;;;;;10.53;71.93;100951.09;839724;23;853;-77
2022/10/23 01:27:24;;;;;;;23.45;16.40;;;;;;;10.43;72.02;100930.78;839563;23;1562;-78
2022/10/23 01:27:51;;;;;;;21.95;17.13;;;;;;;10.43;71.90;100936.00;836245;23;897;-78
2022/10/23 01:28:20;;;;;;;23.98;17.75;;;;;;;10.52;72.03;100949.34;840944;23;1054;-77
2022/10/23 01:28:50;;;;;;;24.85;17.60;;;;;;;10.40;72.03;100932.44;841188;23;824;-78
2022/10/23 01:29:13;;;;;;;22.23;17.25;;;;;;;10.52;72.13;100944.13;841029;23;968;-77
2022/10/23 01:29:42;;;;;;;22.75;16.95;;;;;;;10.44;72.08;100927.34;843118;23;1379;-77
2022/10/23 01:30:10;;;;;;;23.27;17.10;;;;;;;10.44;72.01;100932.56;835682;23;1322;-77
2022/10/23 01:30:41;;;;;;;23.27;17.88;;;;;;;10.47;72.00;100941.38;835394;23;1225;-77
2022/10/23 01:31:11;;;;;;;20.70;16.75;;;;;;;10.46;72.31;100941.31;841073;23;1107;-78
2022/10/23 01:31:42;;;;;;;18.88;15.38;;;;;;;10.41;72.00;100931.63;849358;23;1016;-78
2022/10/23 01:32:05;;;;;;;20.80;15.93;;;;;;;10.43;71.97;100938.63;837022;23;1433;-78
2022/10/23 01:32:34;;;;;;;21.33;15.75;;;;;;;10.44;71.91;100945.59;841021;23;894;-78
2022/10/23 01:33:08;;;;;;;20.63;15.20;;;;;;;10.44;72.01;100938.63;839736;23;1015;-77
2022/10/23 01:33:44;;;;;;;22.13;16.65;;;;;;;10.45;72.08;100937.78;839666;23;1332;-77
2022/10/23 01:34:14;;;;;;;21.95;17.13;;;;;;;10.40;72.07;100935.03;847600;23;1005;-78
2022/10/23 01:34:45;;;;;;;20.42;16.83;;;;;;;10.41;72.04;100935.94;840968;23;1243;-77
2022/10/23 01:35:15;;;;;;;22.33;16.60;;;;;;;10.45;72.12;100936.94;841087;23;1047;-77
2022/10/23 01:35:49;;;;;;;24.40;16.50;;;;;;;10.39;72.35;100928.06;839631;23;1095;-77
2022/10/23 01:36:15;;;;;;;22.52;15.70;;;;;;;10.41;72.23;100936.84;831831;23;950;-77
2022/10/23 01:36:40;;;;;;;22.52;15.70;;;;;;;10.43;72.08;100933.41;832170;23;1109;-77
2022/10/23 01:37:05;;;;;;;23.70;16.02;;;;;;;10.39;72.14;100938.50;833181;23;895;-78
2022/10/23 01:37:41;;;;;;;23.55;16.10;;;;;;;10.40;72.10;100935.03;838782;23;1260;-77
2022/10/23 01:38:14;;;;;;;21.83;16.02;;;;;;;10.38;72.28;100928.91;843758;23;1077;-77
2022/10/23 01:38:42;;;;;;;23.67;16.30;;;;;;;10.38;72.19;100930.66;841138;23;966;-77
2022/10/23 01:39:17;;;;;;;23.45;16.60;;;;;;;10.41;72.02;100931.63;835703;23;1205;-77
2022/10/23 01:39:46;;;;;;;20.55;15.95;;;;;;;10.34;72.09;100919.22;839139;23;1533;-77
2022/10/23 01:40:24;;;;;;;20.75;16.00;;;;;;;10.44;72.04;100932.56;835676;23;1025;-78
2022/10/23 01:40:49;;;;;;;21.67;16.35;;;;;;;10.43;71.99;100934.25;839748;23;890;-78
2022/10/23 01:41:15;;;;;;;22.30;16.50;;;;;;;10.33;72.06;100916.56;837119;23;1119;-78
2022/10/23 01:41:42;;;;;;;23.42;16.02;;;;;;;10.39;72.22;100928.06;839618;23;1300;-78
2022/10/23 01:42:11;;;;;;;20.48;14.77;;;;;;;10.36;72.19;100916.66;839651;23;1359;-78
2022/10/23 01:42:39;;;;;;;19.75;14.80;;;;;;;10.34;72.09;100923.53;840958;23;1013;-77
2022/10/23 01:43:15;;;;;;;20.63;14.90;;;;;;;10.33;71.97;100922.66;835808;23;847;-78
2022/10/23 01:43:44;;;;;;;20.83;15.23;;;;;;;10.39;72.14;100933.28;841028;23;960;-77
2022/10/23 01:44:10;;;;;;;23.75;15.70;;;;;;;10.39;72.05;100932.41;843612;23;1861;-77
2022/10/23 01:44:37;;;;;;;21.48;15.10;;;;;;;10.32;72.15;100923.50;843586;23;1047;-77
2022/10/23 01:45:04;;;;;;;19.75;14.85;;;;;;;10.35;72.21;100926.22;845166;23;821;-77
2022/10/23 01:45:44;;;;;;;19.75;14.85;;;;;;;10.37;72.00;100928.84;843694;23;1658;-78
2022/10/23 01:46:14;;;;;;;19.73;14.60;;;;;;;10.38;72.09;100941.09;839711;23;1052;-77
2022/10/23 01:46:36;;;;;;;19.27;14.73;;;;;;;10.33;71.97;100927.88;835690;23;1029;-77
2022/10/23 01:46:57;;;;;;;18.73;14.35;;;;;;;10.33;72.37;100927.00;839567;23;1113;-78
2022/10/23 01:47:25;;;;;;;16.25;13.68;;;;;;;10.30;72.11;100916.47;841146;23;1202;-77
2022/10/23 01:47:56;;;;;;;18.00;13.75;;;;;;;10.31;71.97;100924.31;839764;23;873;-78
2022/10/23 01:48:24;;;;;;;19.13;14.20;;;;;;;10.28;72.18;100919.03;839615;23;1365;-77
2022/10/23 01:48:51;;;;;;;18.23;14.10;;;;;;;10.31;72.17;100919.13;842943;23;833;-78
2022/10/23 01:49:13;;;;;;;20.95;14.57;;;;;;;10.31;72.25;100919.13;845313;23;1080;-77
2022/10/23 01:49:38;;;;;;;20.40;14.40;;;;;;;10.33;72.26;100922.66;844747;23;1101;-77
2022/10/23 01:50:01;;;;;;;19.83;14.20;;;;;;;10.32;72.07;100915.66;849205;23;830;-77
2022/10/23 01:50:24;;;;;;;19.23;13.73;;;;;;;10.30;72.15;100919.09;839775;23;1013;-78
2022/10/23 01:50:56;;;;;;;22.60;14.45;;;;;;;10.35;72.10;100931.44;837363;23;907;-78
2022/10/23 01:51:21;;;;;;;21.58;15.45;;;;;;;10.32;71.98;100918.28;835796;23;1260;-77
2022/10/23 01:51:46;;;;;;;22.02;15.50;;;;;;;10.32;72.08;100918.28;841517;23;727;-77
2022/10/23 01:52:11;;;;;;;22.70;16.60;;;;;;;10.34;72.18;100919.22;839777;23;1237;-77
2022/10/23 01:52:38;;;;;;;22.92;16.65;;;;;;;10.31;72.01;100913.91;835875;23;2203;-78
2022/10/23 01:52:59;;;;;;;22.23;15.95;;;;;;;10.31;72.06;100921.72;837371;23;802;-77
2022/10/23 01:53:21;;;;;;;20.23;15.15;;;;;;;10.31;72.26;100910.41;837400;23;1089;-77
2022/10/23 01:53:45;;;;;;;22.90;15.60;;;;;;;10.37;72.02;100926.25;839997;23;802;-77
2022/10/23 01:54:12;;;;;;;22.85;15.52;;;;;;;10.30;72.06;100925.16;837310;23;1046;-77
2022/10/23 01:54:38;;;;;;;24.23;16.00;;;;;;;10.33;72.04;100920.03;843957;23;1345;-78
2022/10/23 01:55:00;;;;;;;23.50;16.92;;;;;;;10.31;72.00;100919.13;844022;23;845;-77
2022/10/23 01:55:24;;;;;;;21.00;17.00;;;;;;;10.29;72.13;100920.78;835973;23;990;-77
2022/10/23 01:55:48;;;;;;;21.73;17.17;;;;;;;10.28;72.07;100919.03;836517;23;1286;-77
2022/10/23 01:56:29;;;;;;;24.02;17.83;;;;;;;10.32;72.09;100925.22;839865;23;1096;-78
2022/10/23 01:56:51;;;;;;;26.80;18.73;;;;;;;10.28;72.06;100924.25;839929;23;1241;-78
2022/10/23 01:57:21;;;;;;;26.20;18.92;;;;;;;10.34;72.04;100928.75;831996;23;1261;-77
2022/10/23 01:57:44;;;;;;;24.90;18.50;;;;;;;10.28;72.14;100921.63;828090;23;1264;-77
2022/10/23 01:58:07;;;;;;;26.13;19.42;;;;;;;10.24;72.10;100917.16;837237;23;1052;-78
2022/10/23 01:58:34;;;;;;;26.90;19.33;;;;;;;10.25;72.10;100918.91;839814;23;966;-78
2022/10/23 01:59:00;;;;;;;27.75;19.73;;;;;;;10.26;72.13;100918.97;845469;23;830;-78
2022/10/23 01:59:34;;;;;;;27.08;19.63;;;;;;;10.25;71.94;100913.69;841266;23;1133;-77